createdAt,value
2018-07-06T00:01:34.955Z,9.97
2018-07-06T00:04:22.791Z,10.67
2018-07-06T00:07:10.582Z,11.43
2018-07-06T00:09:58.308Z,10.63
2018-07-06T00:12:46.299Z,10.63
2018-07-06T00:15:34.237Z,9.43
2018-07-06T00:18:22.073Z,10.63
2018-07-06T00:21:09.909Z,7.47
2018-07-06T00:23:57.793Z,8.53
2018-07-06T00:26:45.683Z,9.07
2018-07-06T00:29:33.415Z,8.47
2018-07-06T00:32:21.147Z,10.73
2018-07-06T00:35:09.087Z,11.00
2018-07-06T00:37:56.873Z,9.63
2018-07-06T00:40:44.658Z,7.07
2018-07-06T00:43:32.287Z,7.27
2018-07-06T00:46:20.112Z,8.50
2018-07-06T00:49:07.857Z,13.17
2018-07-06T00:51:55.851Z,13.07
2018-07-06T00:54:43.585Z,10.77
2018-07-06T00:57:31.365Z,9.47
2018-07-06T01:00:19.097Z,10.07
2018-07-06T01:03:06.923Z,13.03
2018-07-06T01:05:54.668Z,12.70
2018-07-06T01:08:42.450Z,11.83
2018-07-06T01:11:30.238Z,12.20
2018-07-06T01:14:17.971Z,11.50
2018-07-06T01:17:09.958Z,12.30
2018-07-06T01:19:58.358Z,10.23
2018-07-06T01:22:46.188Z,9.07
2018-07-06T01:25:34.073Z,8.13
2018-07-06T01:28:22.014Z,9.13
2018-07-06T01:31:09.799Z,12.13
2018-07-06T01:33:57.532Z,11.37
2018-07-06T01:36:39.223Z,11.73
2018-07-06T01:39:27.263Z,11.53
2018-07-06T01:42:15.203Z,13.70
2018-07-06T01:45:03.093Z,15.20
2018-07-06T01:47:50.983Z,10.93
2018-07-06T01:50:39.018Z,10.70
2018-07-06T01:53:26.854Z,10.87
2018-07-06T01:56:14.642Z,12.20
2018-07-06T01:59:02.627Z,11.80
2018-07-06T02:01:50.348Z,8.77
2018-07-06T02:04:38.094Z,10.67
2018-07-06T02:07:25.986Z,10.33
2018-07-06T02:10:13.716Z,11.00
2018-07-06T02:13:01.450Z,7.43
2018-07-06T02:15:49.337Z,8.43
2018-07-06T02:18:37.069Z,10.60
2018-07-06T02:21:24.904Z,7.53
2018-07-06T02:24:12.693Z,8.63
2018-07-06T02:27:00.426Z,6.97
2018-07-06T02:29:48.106Z,8.47
2018-07-06T02:32:35.890Z,13.97
2018-07-06T02:35:23.704Z,14.27
2018-07-06T02:38:11.716Z,11.63
2018-07-06T02:40:53.407Z,10.90
2018-07-06T02:43:41.096Z,13.07
2018-07-06T02:46:28.977Z,11.53
2018-07-06T02:49:16.814Z,7.63
2018-07-06T02:52:04.753Z,8.43
2018-07-06T02:54:52.349Z,11.33
2018-07-06T02:57:40.219Z,9.37
2018-07-06T03:00:28.101Z,9.03
2018-07-06T03:03:15.997Z,8.30
2018-07-06T03:06:03.930Z,7.10
2018-07-06T03:08:51.868Z,5.87
2018-07-06T03:11:39.656Z,7.27
2018-07-06T03:14:27.595Z,6.67
2018-07-06T03:17:15.322Z,6.80
2018-07-06T03:20:03.078Z,7.90
2018-07-06T03:22:50.844Z,12.97
2018-07-06T03:25:38.781Z,5.53
2018-07-06T03:28:26.707Z,6.50
2018-07-06T03:31:14.661Z,12.97
2018-07-06T03:34:02.596Z,9.30
2018-07-06T03:36:50.432Z,10.10
2018-07-06T03:39:32.286Z,9.83
2018-07-06T03:42:20.118Z,7.90
2018-07-06T03:45:07.899Z,9.17
2018-07-06T03:47:55.697Z,8.03
2018-07-06T03:50:43.365Z,8.80
2018-07-06T03:53:31.098Z,10.93
2018-07-06T03:56:18.780Z,8.20
2018-07-06T03:59:06.509Z,8.73
2018-07-06T04:01:54.393Z,6.50
2018-07-06T04:04:42.134Z,10.80
2018-07-06T04:07:29.971Z,9.93
2018-07-06T04:10:17.962Z,9.30
2018-07-06T04:13:05.643Z,7.30
2018-07-06T04:15:53.451Z,5.73
2018-07-06T04:18:41.417Z,6.63
2018-07-06T04:21:29.243Z,8.43
2018-07-06T04:24:17.088Z,7.87
2018-07-06T04:27:04.925Z,7.10
2018-07-06T04:29:52.761Z,7.37
2018-07-06T04:32:40.699Z,8.90
2018-07-06T04:35:28.740Z,10.27
2018-07-06T04:38:16.521Z,7.07
2018-07-06T04:41:04.361Z,7.83
2018-07-06T04:43:52.145Z,9.77
2018-07-06T04:46:33.834Z,8.60
2018-07-06T04:49:21.570Z,7.20
2018-07-06T04:52:09.512Z,6.53
2018-07-06T04:54:57.393Z,8.37
2018-07-06T04:57:45.282Z,6.57
2018-07-06T05:00:33.372Z,9.17
2018-07-06T05:03:21.260Z,8.63
2018-07-06T05:06:09.250Z,6.87
2018-07-06T05:08:57.138Z,6.03
2018-07-06T05:11:45.081Z,7.03
2018-07-06T05:14:32.912Z,8.17
2018-07-06T05:17:20.749Z,7.57
2018-07-06T05:20:08.537Z,6.70
2018-07-06T05:22:56.420Z,6.97
2018-07-06T05:25:44.258Z,7.53
2018-07-06T05:28:32.194Z,6.67
2018-07-06T05:31:19.982Z,6.13
2018-07-06T05:34:07.967Z,8.17
2018-07-06T05:36:55.702Z,10.77
2018-07-06T05:39:43.538Z,10.43
2018-07-06T05:42:31.169Z,7.40
2018-07-06T05:45:19.107Z,9.53
2018-07-06T05:48:06.993Z,6.10
2018-07-06T05:50:54.779Z,4.80
2018-07-06T05:53:42.765Z,7.13
2018-07-06T05:56:30.554Z,6.90
2018-07-06T05:59:18.481Z,8.33
2018-07-06T06:02:06.383Z,6.30
2018-07-06T06:04:54.166Z,5.37
2018-07-06T06:07:25.203Z,7.47
2018-07-06T06:09:56.973Z,10.20
2018-07-06T06:12:28.115Z,9.30
2018-07-06T06:14:59.779Z,5.90
2018-07-06T06:17:31.501Z,10.87
2018-07-06T06:20:03.187Z,11.07
2018-07-06T06:22:34.901Z,10.27
2018-07-06T06:25:06.618Z,8.13
2018-07-06T06:27:38.514Z,8.87
2018-07-06T06:30:10.529Z,9.30
2018-07-06T06:32:41.708Z,8.20
2018-07-06T06:35:13.437Z,7.43
2018-07-06T06:37:45.430Z,7.63
2018-07-06T06:40:17.174Z,13.90
2018-07-06T06:42:49.066Z,7.00
2018-07-06T06:45:20.886Z,14.13
2018-07-06T06:47:52.704Z,10.07
2018-07-06T06:50:24.533Z,10.13
2018-07-06T06:52:56.449Z,9.90
2018-07-06T06:55:28.386Z,8.80
2018-07-06T06:58:00.231Z,7.60
2018-07-06T07:00:32.142Z,6.90
2018-07-06T07:03:04.054Z,7.13
2018-07-06T07:05:35.780Z,6.43
2018-07-06T07:08:07.881Z,8.10
2018-07-06T07:10:39.656Z,6.50
2018-07-06T07:13:11.524Z,8.07
2018-07-06T07:15:43.422Z,7.33
2018-07-06T07:18:15.435Z,7.20
2018-07-06T07:20:47.196Z,6.93
2018-07-06T07:23:19.098Z,4.90
2018-07-06T07:25:50.894Z,5.80
2018-07-06T07:28:22.878Z,4.90
2018-07-06T07:30:54.887Z,7.27
2018-07-06T07:33:26.613Z,9.03
2018-07-06T07:35:58.462Z,9.30
2018-07-06T07:38:30.329Z,6.77
2018-07-06T07:41:03.284Z,6.13
2018-07-06T07:43:35.111Z,10.37
2018-07-06T07:46:06.873Z,8.03
2018-07-06T07:48:38.682Z,9.10
2018-07-06T07:52:05.381Z,8.37
2018-07-06T07:54:48.869Z,10.17
2018-07-06T07:57:20.904Z,8.03
2018-07-06T07:59:54.268Z,6.77
2018-07-06T08:02:26.142Z,6.27
2018-07-06T08:04:57.947Z,6.47
2018-07-06T08:07:29.781Z,8.50
2018-07-06T08:10:01.571Z,8.00
2018-07-06T08:12:33.243Z,6.43
2018-07-06T08:15:05.110Z,6.80
2018-07-06T08:17:36.828Z,4.87
2018-07-06T08:20:08.426Z,5.20
2018-07-06T08:22:40.216Z,4.83
2018-07-06T08:25:11.926Z,5.60
2018-07-06T08:27:43.658Z,5.00
2018-07-06T08:30:15.658Z,4.30
2018-07-06T08:32:47.266Z,4.57
2018-07-06T08:35:35.242Z,5.00
2018-07-06T08:38:07.760Z,5.10
2018-07-06T08:40:39.569Z,4.07
2018-07-06T08:43:11.197Z,3.70
2018-07-06T08:45:43.088Z,4.03
2018-07-06T08:48:14.901Z,5.47
2018-07-06T08:50:46.527Z,4.40
2018-07-06T08:53:18.318Z,4.20
2018-07-06T08:55:49.504Z,4.83
2018-07-06T08:58:21.189Z,4.53
2018-07-06T09:00:52.977Z,5.90
2018-07-06T09:03:24.561Z,4.23
2018-07-06T09:05:56.493Z,5.10
2018-07-06T09:08:28.066Z,4.80
2018-07-06T09:11:10.901Z,4.17
2018-07-06T09:13:42.537Z,5.40
2018-07-06T09:16:14.262Z,7.27
2018-07-06T09:18:46.041Z,6.70
2018-07-06T09:21:17.800Z,7.40
2018-07-06T09:23:49.490Z,7.87
2018-07-06T09:26:21.192Z,7.70
2018-07-06T09:28:52.877Z,11.53
2018-07-06T09:31:24.680Z,15.50
2018-07-06T09:33:56.425Z,10.20
2018-07-06T09:36:28.309Z,9.07
2018-07-06T09:39:00.056Z,7.07
2018-07-06T09:41:31.843Z,6.23
2018-07-06T09:44:03.528Z,5.33
2018-07-06T09:46:35.146Z,6.63
2018-07-06T09:49:07.435Z,5.77
2018-07-06T09:51:39.185Z,10.77
2018-07-06T09:54:10.972Z,5.83
2018-07-06T09:56:42.737Z,5.73
2018-07-06T09:59:14.621Z,8.17
2018-07-06T10:01:46.615Z,8.67
2018-07-06T10:04:18.480Z,10.10
2018-07-06T10:06:50.256Z,10.17
2018-07-06T10:09:21.969Z,11.10
2018-07-06T10:11:53.802Z,15.37
2018-07-06T10:14:25.692Z,12.93
2018-07-06T10:16:57.568Z,12.03
2018-07-06T10:19:29.344Z,10.23
2018-07-06T10:22:01.186Z,8.07
2018-07-06T10:24:32.975Z,11.00
2018-07-06T10:27:04.658Z,11.53
2018-07-06T10:30:05.043Z,8.30
2018-07-06T10:32:36.722Z,7.07
2018-07-06T10:35:08.432Z,7.10
2018-07-06T10:37:40.229Z,8.97
2018-07-06T10:40:12.019Z,8.23
2018-07-06T10:42:43.885Z,7.70
2018-07-06T10:45:15.591Z,7.27
2018-07-06T10:47:47.373Z,11.17
2018-07-06T10:50:19.205Z,7.97
2018-07-06T10:52:51.022Z,7.53
2018-07-06T10:55:22.701Z,5.50
2018-07-06T10:57:54.581Z,4.73
2018-07-06T11:00:26.203Z,8.03
2018-07-06T11:02:58.003Z,7.63
2018-07-06T11:05:29.918Z,5.60
2018-07-06T11:08:01.108Z,6.33
2018-07-06T11:10:32.873Z,8.70
2018-07-06T11:13:04.550Z,6.87
2018-07-06T11:15:36.207Z,5.70
2018-07-06T11:18:07.861Z,4.70
2018-07-06T11:20:39.629Z,4.40
2018-07-06T11:23:11.580Z,3.87
2018-07-06T11:25:43.373Z,3.87
2018-07-06T11:28:14.563Z,6.37
2018-07-06T11:30:46.228Z,5.00
2018-07-06T11:33:17.994Z,3.60
2018-07-06T11:35:49.671Z,4.40
2018-07-06T11:38:21.399Z,3.90
2018-07-06T11:40:53.312Z,3.43
2018-07-06T11:43:24.948Z,3.13
2018-07-06T11:45:56.672Z,6.50
2018-07-06T11:48:28.366Z,4.77
2018-07-06T11:51:00.223Z,4.30
2018-07-06T11:53:32.154Z,3.90
2018-07-06T11:56:04.041Z,3.70
2018-07-06T11:58:35.794Z,6.60
2018-07-06T12:01:07.682Z,5.67
2018-07-06T12:03:39.669Z,6.73
2018-07-06T12:06:11.781Z,5.47
2018-07-06T12:08:43.475Z,5.70
2018-07-06T12:11:15.318Z,5.30
2018-07-06T12:13:47.152Z,4.60
2018-07-06T12:16:19.064Z,3.87
2018-07-06T12:18:50.246Z,5.83
2018-07-06T12:21:22.060Z,4.20
2018-07-06T12:23:53.789Z,5.10
2018-07-06T12:26:25.670Z,3.97
2018-07-06T12:28:57.342Z,4.17
2018-07-06T12:31:29.208Z,4.30
2018-07-06T12:34:00.943Z,4.17
2018-07-06T12:36:32.694Z,3.53
2018-07-06T12:39:05.508Z,4.40
2018-07-06T12:41:37.275Z,3.60
2018-07-06T12:44:09.229Z,3.83
2018-07-06T12:46:41.059Z,3.80
2018-07-06T12:49:12.849Z,3.30
2018-07-06T12:51:44.574Z,3.30
2018-07-06T12:54:16.445Z,2.27
2018-07-06T12:56:48.407Z,3.53
2018-07-06T12:59:20.164Z,3.30
2018-07-06T13:01:51.930Z,2.90
2018-07-06T13:04:23.653Z,3.13
2018-07-06T13:06:55.662Z,2.70
2018-07-06T13:09:27.294Z,2.87
2018-07-06T13:11:59.165Z,1.97
2018-07-06T13:14:30.933Z,2.30
2018-07-06T13:17:02.577Z,2.40
2018-07-06T13:19:34.417Z,2.50
2018-07-06T13:22:06.152Z,1.80
2018-07-06T13:24:38.087Z,1.87
2018-07-06T13:27:10.030Z,2.30
2018-07-06T13:29:41.865Z,2.30
2018-07-06T13:32:13.727Z,1.90
2018-07-06T13:34:45.516Z,2.17
2018-07-06T13:37:17.318Z,2.33
2018-07-06T13:39:49.105Z,1.93
2018-07-06T13:42:20.777Z,2.30
2018-07-06T13:44:52.650Z,2.13
2018-07-06T13:47:24.491Z,2.07
2018-07-06T13:49:56.394Z,1.77
2018-07-06T13:52:28.151Z,1.77
2018-07-06T13:54:59.993Z,1.37
2018-07-06T13:57:31.928Z,1.70
2018-07-06T14:00:03.923Z,2.33
2018-07-06T14:02:35.667Z,2.17
2018-07-06T14:05:07.434Z,1.90
2018-07-06T14:07:39.279Z,1.80
2018-07-06T14:10:11.127Z,1.90
2018-07-06T14:12:42.793Z,2.30
2018-07-06T14:15:14.646Z,1.80
2018-07-06T14:17:46.622Z,2.10
2018-07-06T14:20:18.314Z,1.40
2018-07-06T14:22:50.054Z,1.80
2018-07-06T14:25:21.989Z,1.50
2018-07-06T14:27:54.012Z,1.93
2018-07-06T14:30:25.862Z,1.70
2018-07-06T14:32:57.678Z,2.10
2018-07-06T14:35:29.636Z,1.60
2018-07-06T14:38:01.412Z,1.27
2018-07-06T14:40:33.290Z,1.30
2018-07-06T14:43:05.136Z,1.70
2018-07-06T14:45:36.985Z,1.60
2018-07-06T14:48:08.941Z,1.80
2018-07-06T14:50:40.617Z,1.70
2018-07-06T14:53:12.454Z,1.40
2018-07-06T14:55:44.240Z,1.40
2018-07-06T14:58:16.074Z,1.60
2018-07-06T15:00:47.762Z,0.97
2018-07-06T15:03:19.505Z,0.87
2018-07-06T15:05:51.184Z,0.90
2018-07-06T15:08:22.946Z,1.07
2018-07-06T15:10:54.701Z,0.80
2018-07-06T15:13:26.454Z,0.63
2018-07-06T15:15:58.322Z,0.90
2018-07-06T15:18:30.093Z,0.80
2018-07-06T15:21:01.947Z,0.90
2018-07-06T15:23:33.931Z,0.80
2018-07-06T15:26:05.641Z,0.90
2018-07-06T15:28:37.408Z,0.70
2018-07-06T15:31:09.077Z,0.70
2018-07-06T15:33:41.014Z,0.70
2018-07-06T15:36:12.880Z,0.73
2018-07-06T15:38:44.558Z,0.83
2018-07-06T15:41:16.433Z,0.57
2018-07-06T15:43:48.144Z,1.20
2018-07-06T15:46:19.985Z,1.47
2018-07-06T15:48:51.697Z,1.00
2018-07-06T15:51:23.528Z,0.93
2018-07-06T15:53:55.304Z,1.63
2018-07-06T15:56:27.065Z,1.23
2018-07-06T15:58:58.908Z,0.87
2018-07-06T16:01:30.774Z,1.10
2018-07-06T16:04:02.585Z,1.30
2018-07-06T16:06:33.690Z,1.00
2018-07-06T16:09:05.598Z,1.00
2018-07-06T16:11:37.393Z,0.87
2018-07-06T16:14:09.272Z,1.87
2018-07-06T16:16:40.940Z,1.20
2018-07-06T16:19:12.733Z,1.17
2018-07-06T16:21:44.485Z,0.90
2018-07-06T16:24:16.161Z,0.87
2018-07-06T16:26:47.872Z,1.20
2018-07-06T16:29:19.653Z,0.80
2018-07-06T16:31:51.345Z,1.03
2018-07-06T16:34:23.053Z,1.80
2018-07-06T16:36:54.882Z,1.17
2018-07-06T16:39:26.745Z,1.50
2018-07-06T16:41:58.525Z,1.67
2018-07-06T16:44:30.397Z,1.70
2018-07-06T16:47:02.365Z,1.40
2018-07-06T16:49:34.187Z,1.57
2018-07-06T16:52:05.874Z,1.40
2018-07-06T16:54:38.009Z,2.73
2018-07-06T16:57:09.805Z,4.07
2018-07-06T16:59:41.599Z,2.33
2018-07-06T17:02:13.323Z,3.40
2018-07-06T17:04:45.106Z,3.77
2018-07-06T17:07:16.941Z,2.63
2018-07-06T17:09:48.679Z,2.40
2018-07-06T17:12:20.686Z,2.07
2018-07-06T17:14:52.416Z,1.70
2018-07-06T17:17:24.353Z,2.00
2018-07-06T17:19:56.272Z,1.73
2018-07-06T17:22:27.898Z,2.30
2018-07-06T17:24:59.669Z,2.90
2018-07-06T17:27:31.640Z,1.40
2018-07-06T17:30:03.318Z,1.57
2018-07-06T17:32:35.154Z,1.40
2018-07-06T17:35:07.078Z,1.63
2018-07-06T17:37:39.150Z,1.17
2018-07-06T17:40:11.009Z,1.40
2018-07-06T17:42:42.821Z,1.83
2018-07-06T17:45:14.550Z,1.40
2018-07-06T17:47:46.507Z,1.63
2018-07-06T17:50:18.282Z,2.03
2018-07-06T17:52:50.063Z,2.33
2018-07-06T17:55:21.993Z,1.40
2018-07-06T17:57:53.734Z,2.40
2018-07-06T18:00:25.525Z,1.70
2018-07-06T18:02:57.271Z,1.40
2018-07-06T18:05:29.546Z,1.10
2018-07-06T18:08:01.310Z,2.30
2018-07-06T18:10:33.167Z,2.37
2018-07-06T18:13:05.097Z,1.20
2018-07-06T18:15:36.885Z,1.57
2018-07-06T18:18:08.581Z,1.53
2018-07-06T18:20:40.487Z,1.33
2018-07-06T18:23:12.527Z,1.37
2018-07-06T18:25:44.328Z,1.87
2018-07-06T18:28:16.321Z,1.33
2018-07-06T18:30:47.961Z,1.07
2018-07-06T18:33:19.619Z,1.30
2018-07-06T18:35:51.493Z,1.40
2018-07-06T18:38:23.157Z,1.60
2018-07-06T18:40:55.056Z,1.60
2018-07-06T18:43:26.975Z,1.83
2018-07-06T18:45:58.618Z,1.77
2018-07-06T18:48:30.549Z,1.47
2018-07-06T18:51:02.254Z,1.50
2018-07-06T18:53:33.978Z,1.60
2018-07-06T18:56:05.930Z,1.30
2018-07-06T18:58:37.943Z,1.20
2018-07-06T19:01:09.775Z,2.80
2018-07-06T19:03:41.420Z,1.40
2018-07-06T19:06:13.270Z,1.33
2018-07-06T19:08:45.335Z,2.13
2018-07-06T19:11:17.025Z,1.67
2018-07-06T19:13:48.749Z,2.77
2018-07-06T19:16:20.630Z,2.13
2018-07-06T19:18:52.388Z,2.90
2018-07-06T19:21:24.252Z,1.87
2018-07-06T19:23:56.026Z,2.13
2018-07-06T19:26:27.669Z,2.53
2018-07-06T19:28:59.518Z,3.77
2018-07-06T19:31:31.260Z,2.87
2018-07-06T19:34:02.957Z,2.37
2018-07-06T19:36:34.760Z,2.33
2018-07-06T19:39:06.746Z,4.00
2018-07-06T19:41:38.425Z,2.13
2018-07-06T19:44:10.321Z,2.17
2018-07-06T19:46:42.027Z,2.50
2018-07-06T19:49:13.703Z,2.10
2018-07-06T19:51:45.524Z,3.17
2018-07-06T19:54:17.402Z,2.47
2018-07-06T19:56:49.379Z,2.27
2018-07-06T19:59:21.228Z,2.00
2018-07-06T20:01:53.017Z,2.17
2018-07-06T20:04:24.889Z,2.40
2018-07-06T20:06:56.716Z,2.47
2018-07-06T20:09:28.486Z,2.10
2018-07-06T20:12:00.260Z,1.67
2018-07-06T20:14:32.184Z,2.07
2018-07-06T20:17:04.164Z,3.00
2018-07-06T20:19:35.901Z,2.40
2018-07-06T20:22:07.700Z,2.20
2018-07-06T20:24:39.421Z,2.70
2018-07-06T20:27:11.269Z,3.33
2018-07-06T20:29:43.085Z,2.80
2018-07-06T20:32:14.821Z,1.77
2018-07-06T20:34:46.633Z,4.00
2018-07-06T20:37:18.552Z,3.67
2018-07-06T20:39:50.490Z,3.27
2018-07-06T20:42:22.337Z,3.50
2018-07-06T20:44:54.039Z,3.50
2018-07-06T20:47:25.985Z,3.20
2018-07-06T20:49:57.653Z,3.60
2018-07-06T20:52:29.412Z,2.90
2018-07-06T20:55:01.196Z,3.30
2018-07-06T20:57:32.927Z,3.43
2018-07-06T21:00:04.943Z,3.70
2018-07-06T21:02:36.953Z,3.33
2018-07-06T21:05:08.839Z,2.87
2018-07-06T21:07:40.477Z,4.13
2018-07-06T21:10:12.323Z,4.77
2018-07-06T21:12:44.182Z,4.63
2018-07-06T21:15:15.958Z,5.37
2018-07-06T21:17:47.797Z,5.20
2018-07-06T21:20:19.816Z,6.17
2018-07-06T21:22:51.572Z,4.93
2018-07-06T21:25:23.475Z,4.60
2018-07-06T21:27:55.169Z,3.50
2018-07-06T21:30:26.914Z,4.13
2018-07-06T21:32:58.813Z,4.37
2018-07-06T21:35:30.544Z,4.60
2018-07-06T21:38:02.311Z,4.10
2018-07-06T21:40:34.075Z,4.10
2018-07-06T21:43:05.727Z,5.40
2018-07-06T21:45:37.364Z,4.50
2018-07-06T21:48:09.221Z,3.83
2018-07-06T21:50:40.989Z,5.30
2018-07-06T21:53:12.848Z,4.03
2018-07-06T21:55:44.697Z,4.67
2018-07-06T21:58:16.467Z,5.40
2018-07-06T22:00:48.182Z,3.63
2018-07-06T22:03:19.971Z,3.33
2018-07-06T22:05:51.861Z,3.50
2018-07-06T22:08:23.724Z,3.90
2018-07-06T22:10:55.606Z,4.27
2018-07-06T22:13:27.463Z,3.60
2018-07-06T22:15:58.584Z,3.90
2018-07-06T22:18:30.232Z,2.50
2018-07-06T22:21:02.097Z,2.97
2018-07-06T22:23:33.954Z,2.87
2018-07-06T22:26:05.906Z,4.60
2018-07-06T22:28:37.527Z,3.27
2018-07-06T22:31:09.441Z,2.77
2018-07-06T22:33:41.076Z,2.97
2018-07-06T22:36:12.745Z,4.53
2018-07-06T22:38:44.624Z,4.30
2018-07-06T22:41:16.354Z,5.00
2018-07-06T22:43:48.134Z,5.13
2018-07-06T22:46:19.898Z,5.10
2018-07-06T22:48:51.718Z,4.03
2018-07-06T22:51:23.590Z,4.70
2018-07-06T22:53:55.370Z,3.30
2018-07-06T22:56:27.117Z,4.10
2018-07-06T22:58:58.806Z,4.47
2018-07-06T23:01:30.656Z,5.17
2018-07-06T23:04:02.386Z,4.13
2018-07-06T23:06:34.258Z,3.73
2018-07-06T23:09:06.928Z,5.30
2018-07-06T23:11:38.722Z,4.60
2018-07-06T23:14:10.578Z,5.00
2018-07-06T23:16:42.514Z,3.90
2018-07-06T23:19:14.180Z,3.93
2018-07-06T23:21:45.948Z,3.83
2018-07-06T23:24:17.739Z,3.03
2018-07-06T23:26:49.473Z,3.17
2018-07-06T23:29:21.244Z,2.93
2018-07-06T23:31:52.960Z,4.57
2018-07-06T23:34:24.833Z,3.70
2018-07-06T23:36:56.625Z,4.40
2018-07-06T23:39:28.272Z,3.37
2018-07-06T23:42:00.106Z,2.90
2018-07-06T23:44:31.785Z,5.03
2018-07-06T23:47:03.442Z,3.43
2018-07-06T23:49:35.282Z,4.90
2018-07-06T23:52:07.062Z,5.93
2018-07-06T23:54:38.857Z,3.30
2018-07-06T23:57:10.764Z,3.30
2018-07-06T23:59:42.522Z,5.67
